createdAt,value
2023-05-14T00:01:04.087Z,3.72
2023-05-14T00:03:31.094Z,4.32
2023-05-14T00:05:58.393Z,4.32
2023-05-14T00:08:25.102Z,4.47
2023-05-14T00:10:52.273Z,4.20
2023-05-14T00:13:18.955Z,4.05
2023-05-14T00:15:45.669Z,4.43
2023-05-14T00:18:12.483Z,4.30
2023-05-14T00:20:39.242Z,4.30
2023-05-14T00:23:06.128Z,4.35
2023-05-14T00:25:32.816Z,4.57
2023-05-14T00:27:59.449Z,4.00
2023-05-14T00:30:26.303Z,4.15
2023-05-14T00:32:53.581Z,3.95
2023-05-14T00:35:21.566Z,4.60
2023-05-14T00:37:48.289Z,4.35
2023-05-14T00:40:15.079Z,4.45
2023-05-14T00:42:41.752Z,4.28
2023-05-14T00:45:08.972Z,4.45
2023-05-14T00:47:36.529Z,4.40
2023-05-14T00:50:04.670Z,4.40
2023-05-14T00:52:32.201Z,3.92
2023-05-14T00:54:59.486Z,4.70
2023-05-14T00:57:26.644Z,5.70
2023-05-14T00:59:53.993Z,4.90
2023-05-14T01:02:20.782Z,4.63
2023-05-14T01:04:47.485Z,5.15
2023-05-14T01:07:24.607Z,4.93
2023-05-14T01:10:08.904Z,4.57
2023-05-14T01:12:44.132Z,5.05
2023-05-14T01:15:23.830Z,4.60
2023-05-14T01:17:56.690Z,4.97
2023-05-14T01:20:23.801Z,4.78
2023-05-14T01:22:50.648Z,4.72
2023-05-14T01:25:17.675Z,5.13
2023-05-14T01:28:17.994Z,5.18
2023-05-14T01:31:07.072Z,5.18
2023-05-14T01:33:35.769Z,4.78
2023-05-14T01:36:03.737Z,5.65
2023-05-14T01:38:33.945Z,5.32
2023-05-14T01:41:01.559Z,5.22
2023-05-14T01:43:29.181Z,5.32
2023-05-14T01:45:56.249Z,5.43
2023-05-14T01:48:22.911Z,5.57
2023-05-14T01:50:49.590Z,5.32
2023-05-14T01:53:16.245Z,5.25
2023-05-14T01:55:42.952Z,5.22
2023-05-14T01:58:09.662Z,4.85
2023-05-14T02:00:36.341Z,5.60
2023-05-14T02:03:03.043Z,5.55
2023-05-14T02:05:29.704Z,7.03
2023-05-14T02:07:56.363Z,6.38
2023-05-14T02:10:23.167Z,6.47
2023-05-14T02:12:50.118Z,6.47
2023-05-14T02:15:16.863Z,6.10
2023-05-14T02:17:43.579Z,6.20
2023-05-14T02:20:11.491Z,6.30
2023-05-14T02:22:38.347Z,6.88
2023-05-14T02:25:05.568Z,6.65
2023-05-14T02:27:32.244Z,6.72
2023-05-14T02:30:00.846Z,6.38
2023-05-14T02:32:28.612Z,6.20
2023-05-14T02:34:55.496Z,7.00
2023-05-14T02:37:22.350Z,6.68
2023-05-14T02:39:49.491Z,7.13
2023-05-14T02:42:16.188Z,6.70
2023-05-14T02:44:42.911Z,6.55
2023-05-14T02:47:10.858Z,6.82
2023-05-14T02:49:37.565Z,6.72
2023-05-14T02:52:04.435Z,6.57
2023-05-14T02:54:31.076Z,6.88
2023-05-14T02:56:57.780Z,7.45
2023-05-14T02:59:24.942Z,6.88
2023-05-14T03:01:52.244Z,7.15
2023-05-14T03:04:19.545Z,7.32
2023-05-14T03:06:46.187Z,7.78
2023-05-14T03:09:13.001Z,6.90
2023-05-14T03:11:39.697Z,7.13
2023-05-14T03:14:06.369Z,6.68
2023-05-14T03:16:33.071Z,6.93
2023-05-14T03:18:59.905Z,6.55
2023-05-14T03:21:27.346Z,6.35
2023-05-14T03:23:54.017Z,7.15
2023-05-14T03:26:21.690Z,7.30
2023-05-14T03:28:48.740Z,8.07
2023-05-14T03:31:15.518Z,6.78
2023-05-14T03:33:42.327Z,6.70
2023-05-14T03:36:09.246Z,7.43
2023-05-14T03:38:35.910Z,6.55
2023-05-14T03:41:02.541Z,6.63
2023-05-14T03:43:29.471Z,7.05
2023-05-14T03:45:56.233Z,7.18
2023-05-14T03:48:23.044Z,6.90
2023-05-14T03:50:49.816Z,7.05
2023-05-14T03:53:16.840Z,7.38
2023-05-14T03:55:45.444Z,7.63
2023-05-14T03:58:14.301Z,7.07
2023-05-14T04:00:42.477Z,7.70
2023-05-14T04:03:11.261Z,7.32
2023-05-14T04:05:38.079Z,6.90
2023-05-14T04:08:05.120Z,7.47
2023-05-14T04:10:32.329Z,6.68
2023-05-14T04:13:00.352Z,6.80
2023-05-14T04:15:31.413Z,7.32
2023-05-14T04:17:58.101Z,7.25
2023-05-14T04:20:24.956Z,6.85
2023-05-14T04:22:53.472Z,6.93
2023-05-14T04:25:20.258Z,6.90
2023-05-14T04:27:46.939Z,6.68
2023-05-14T04:30:13.784Z,7.05
2023-05-14T04:32:40.852Z,7.18
2023-05-14T04:35:09.276Z,7.15
2023-05-14T04:37:36.120Z,6.82
2023-05-14T04:40:03.041Z,7.40
2023-05-14T04:42:29.706Z,7.93
2023-05-14T04:44:56.404Z,7.40
2023-05-14T04:47:23.215Z,7.15
2023-05-14T04:49:49.959Z,7.20
2023-05-14T04:52:16.629Z,8.30
2023-05-14T04:54:43.349Z,7.40
2023-05-14T04:57:10.040Z,7.50
2023-05-14T04:59:36.740Z,7.65
2023-05-14T05:02:03.519Z,6.80
2023-05-14T05:04:30.205Z,7.10
2023-05-14T05:06:56.824Z,6.95
2023-05-14T05:09:23.581Z,7.25
2023-05-14T05:11:50.302Z,8.07
2023-05-14T05:14:17.406Z,6.97
2023-05-14T05:16:44.949Z,7.20
2023-05-14T05:19:11.767Z,8.23
2023-05-14T05:21:40.884Z,7.55
2023-05-14T05:24:08.651Z,7.95
2023-05-14T05:26:38.284Z,7.78
2023-05-14T05:29:05.567Z,6.95
2023-05-14T05:31:32.666Z,7.53
2023-05-14T05:34:00.512Z,7.35
2023-05-14T05:36:27.500Z,7.82
2023-05-14T05:38:54.241Z,7.90
2023-05-14T05:41:20.893Z,8.05
2023-05-14T05:43:47.525Z,7.50
2023-05-14T05:46:14.256Z,7.35
2023-05-14T05:48:40.967Z,8.07
2023-05-14T05:51:07.692Z,7.60
2023-05-14T05:53:34.315Z,8.15
2023-05-14T05:56:01.021Z,7.78
2023-05-14T05:58:27.648Z,7.65
2023-05-14T06:00:55.104Z,7.85
2023-05-14T06:03:22.278Z,7.07
2023-05-14T06:05:49.161Z,7.45
2023-05-14T06:08:16.201Z,7.63
2023-05-14T06:10:42.921Z,8.63
2023-05-14T06:13:09.661Z,8.27
2023-05-14T06:15:36.318Z,8.15
2023-05-14T06:18:03.030Z,7.93
2023-05-14T06:20:29.887Z,7.85
2023-05-14T06:22:56.636Z,8.45
2023-05-14T06:25:23.313Z,7.35
2023-05-14T06:27:49.982Z,7.45
2023-05-14T06:30:16.669Z,7.95
2023-05-14T06:32:43.386Z,7.38
2023-05-14T06:35:10.466Z,6.97
2023-05-14T06:37:37.168Z,7.45
2023-05-14T06:40:04.292Z,6.47
2023-05-14T06:42:30.963Z,5.75
2023-05-14T06:44:58.292Z,6.10
2023-05-14T06:47:25.282Z,5.72
2023-05-14T06:49:52.008Z,5.75
2023-05-14T06:52:18.695Z,4.90
2023-05-14T06:54:45.395Z,5.85
2023-05-14T06:57:12.208Z,5.40
2023-05-14T06:59:38.905Z,5.35
2023-05-14T07:02:05.642Z,5.88
2023-05-14T07:04:32.404Z,5.03
2023-05-14T07:06:59.233Z,5.53
2023-05-14T07:09:25.953Z,5.43
2023-05-14T07:11:52.679Z,5.18
2023-05-14T07:14:19.357Z,5.70
2023-05-14T07:16:47.085Z,4.93
2023-05-14T07:19:14.076Z,5.30
2023-05-14T07:21:40.876Z,5.18
2023-05-14T07:24:07.738Z,6.13
2023-05-14T07:26:34.470Z,5.00
2023-05-14T07:29:01.137Z,5.00
2023-05-14T07:31:27.844Z,5.10
2023-05-14T07:33:55.001Z,4.82
2023-05-14T07:36:22.188Z,5.13
2023-05-14T07:38:48.911Z,5.75
2023-05-14T07:41:15.845Z,5.60
2023-05-14T07:43:42.497Z,4.78
2023-05-14T07:46:09.292Z,5.85
2023-05-14T07:48:35.978Z,5.32
2023-05-14T07:51:02.701Z,4.93
2023-05-14T07:53:29.838Z,5.40
2023-05-14T07:55:56.564Z,4.75
2023-05-14T07:58:23.622Z,5.13
2023-05-14T08:00:50.432Z,5.00
2023-05-14T08:03:17.259Z,5.05
2023-05-14T08:05:43.966Z,5.30
2023-05-14T08:08:10.836Z,4.85
2023-05-14T08:10:37.518Z,4.68
2023-05-14T08:13:04.250Z,5.10
2023-05-14T08:15:30.987Z,5.25
2023-05-14T08:18:03.148Z,4.95
2023-05-14T08:20:31.209Z,4.90
2023-05-14T08:22:58.222Z,5.00
2023-05-14T08:25:25.129Z,4.07
2023-05-14T08:27:51.858Z,4.75
2023-05-14T08:30:18.511Z,4.65
2023-05-14T08:32:45.868Z,5.05
2023-05-14T08:35:12.730Z,5.00
2023-05-14T08:37:39.479Z,4.68
2023-05-14T08:40:08.775Z,4.60
2023-05-14T08:42:40.557Z,5.13
2023-05-14T08:45:13.784Z,5.60
2023-05-14T08:47:40.609Z,5.30
2023-05-14T08:50:08.389Z,5.15
2023-05-14T08:52:35.572Z,4.70
2023-05-14T08:55:06.612Z,4.82
2023-05-14T08:57:34.473Z,3.90
2023-05-14T09:00:04.540Z,4.07
2023-05-14T09:02:32.286Z,4.80
2023-05-14T09:05:00.933Z,4.13
2023-05-14T09:07:28.166Z,4.05
2023-05-14T09:09:55.725Z,5.00
2023-05-14T09:12:22.961Z,4.50
2023-05-14T09:14:51.032Z,4.53
2023-05-14T09:17:18.802Z,4.25
2023-05-14T09:19:49.154Z,5.53
2023-05-14T09:22:17.622Z,5.60
2023-05-14T09:24:45.000Z,5.78
2023-05-14T09:27:21.455Z,5.40
2023-05-14T09:29:48.587Z,5.22
2023-05-14T09:32:15.349Z,6.28
2023-05-14T09:34:42.391Z,5.85
2023-05-14T09:37:09.886Z,5.30
2023-05-14T09:39:37.657Z,5.30
2023-05-14T09:42:04.814Z,5.03
2023-05-14T09:44:31.994Z,4.20
2023-05-14T09:46:58.939Z,4.55
2023-05-14T09:49:25.995Z,4.30
2023-05-14T09:51:52.834Z,4.05
2023-05-14T09:54:19.730Z,4.50
2023-05-14T09:56:46.429Z,4.40
2023-05-14T09:59:13.254Z,3.70
2023-05-14T10:01:43.006Z,4.10
2023-05-14T10:04:11.160Z,3.65
2023-05-14T10:06:39.334Z,3.47
2023-05-14T10:09:13.319Z,3.90
2023-05-14T10:11:43.591Z,3.33
2023-05-14T10:14:49.715Z,3.60
2023-05-14T10:17:19.952Z,3.63
2023-05-14T10:19:57.136Z,3.33
2023-05-14T10:22:31.219Z,3.35
2023-05-14T10:24:58.113Z,3.28
2023-05-14T10:27:25.179Z,3.58
2023-05-14T10:29:56.239Z,3.03
2023-05-14T10:32:25.754Z,3.53
2023-05-14T10:34:53.559Z,3.13
2023-05-14T10:37:25.932Z,3.22
2023-05-14T10:40:01.780Z,3.17
2023-05-14T10:42:33.517Z,3.08
2023-05-14T10:45:02.620Z,3.05
2023-05-14T10:47:29.720Z,2.92
2023-05-14T10:49:59.394Z,2.80
2023-05-14T10:52:26.716Z,3.30
2023-05-14T10:55:14.987Z,2.95
2023-05-14T10:57:43.425Z,2.95
2023-05-14T11:00:12.582Z,2.75
2023-05-14T11:02:41.462Z,2.63
2023-05-14T11:05:15.488Z,2.80
2023-05-14T11:07:45.120Z,2.47
2023-05-14T11:10:13.975Z,2.47
2023-05-14T11:12:43.460Z,2.45
2023-05-14T11:15:11.888Z,2.83
2023-05-14T11:17:41.325Z,2.60
2023-05-14T11:20:09.546Z,1.95
2023-05-14T11:22:38.214Z,2.45
2023-05-14T11:25:06.325Z,2.50
2023-05-14T11:27:38.692Z,2.08
2023-05-14T11:30:11.964Z,2.08
2023-05-14T11:32:38.659Z,2.05
2023-05-14T11:35:05.965Z,1.98
2023-05-14T11:37:32.782Z,1.92
2023-05-14T11:40:01.748Z,2.10
2023-05-14T11:42:28.472Z,2.03
2023-05-14T11:44:55.178Z,2.10
2023-05-14T11:47:22.565Z,1.83
2023-05-14T11:49:49.776Z,2.08
2023-05-14T11:52:19.494Z,1.90
2023-05-14T11:54:47.047Z,2.15
2023-05-14T11:57:16.618Z,2.25
2023-05-14T11:59:43.654Z,2.10
2023-05-14T12:02:12.654Z,2.35
2023-05-14T12:04:39.989Z,1.80
2023-05-14T12:07:14.739Z,2.00
2023-05-14T12:09:50.125Z,2.05
2023-05-14T12:12:25.881Z,1.95
2023-05-14T12:14:52.975Z,1.77
2023-05-14T12:17:21.735Z,2.08
2023-05-14T12:19:52.279Z,1.80
2023-05-14T12:22:21.145Z,1.70
2023-05-14T12:24:59.018Z,1.80
2023-05-14T12:27:27.313Z,1.63
2023-05-14T12:30:19.893Z,1.63
2023-05-14T12:32:51.465Z,1.73
2023-05-14T12:35:18.920Z,1.95
2023-05-14T12:37:45.681Z,1.85
2023-05-14T12:40:12.732Z,1.85
2023-05-14T12:42:39.343Z,2.33
2023-05-14T12:45:08.526Z,2.00
2023-05-14T12:47:36.505Z,1.85
2023-05-14T12:50:03.570Z,2.15
2023-05-14T12:52:37.666Z,2.10
2023-05-14T12:55:07.583Z,2.10
2023-05-14T12:57:35.628Z,2.63
2023-05-14T13:00:02.839Z,2.15
2023-05-14T13:02:29.489Z,2.90
2023-05-14T13:04:56.123Z,2.40
2023-05-14T13:07:23.049Z,2.55
2023-05-14T13:09:49.664Z,2.50
2023-05-14T13:12:16.371Z,2.92
2023-05-14T13:14:42.978Z,2.55
2023-05-14T13:17:09.777Z,2.63
2023-05-14T13:19:36.881Z,2.80
2023-05-14T13:22:03.648Z,2.85
2023-05-14T13:24:30.377Z,2.78
2023-05-14T13:26:57.041Z,2.60
2023-05-14T13:29:24.466Z,2.38
2023-05-14T13:31:51.140Z,2.97
2023-05-14T13:34:17.823Z,3.30
2023-05-14T13:36:44.579Z,2.65
2023-05-14T13:39:14.529Z,2.60
2023-05-14T13:41:41.769Z,2.75
2023-05-14T13:44:08.445Z,2.90
2023-05-14T13:46:35.169Z,2.58
2023-05-14T13:49:01.987Z,3.00
2023-05-14T13:51:28.657Z,2.90
2023-05-14T13:53:55.702Z,2.58
2023-05-14T13:56:22.724Z,2.22
2023-05-14T13:58:49.482Z,2.97
2023-05-14T14:01:16.160Z,2.95
2023-05-14T14:03:42.836Z,2.70
2023-05-14T14:06:09.481Z,2.72
2023-05-14T14:08:36.282Z,2.97
2023-05-14T14:11:02.963Z,2.70
2023-05-14T14:13:29.679Z,2.38
2023-05-14T14:15:57.507Z,2.50
2023-05-14T14:18:24.226Z,2.60
2023-05-14T14:20:50.952Z,2.72
2023-05-14T14:23:17.665Z,2.22
2023-05-14T14:25:44.401Z,2.30
2023-05-14T14:28:11.199Z,2.50
2023-05-14T14:30:37.943Z,2.53
2023-05-14T14:33:04.752Z,2.50
2023-05-14T14:35:33.377Z,2.40
2023-05-14T14:38:00.059Z,2.55
2023-05-14T14:40:26.794Z,2.53
2023-05-14T14:42:53.712Z,2.65
2023-05-14T14:45:20.428Z,2.22
2023-05-14T14:47:48.804Z,2.28
2023-05-14T14:50:15.629Z,2.00
2023-05-14T14:52:47.996Z,2.70
2023-05-14T14:55:14.780Z,2.10
2023-05-14T14:57:41.473Z,2.08
2023-05-14T15:00:09.321Z,2.50
2023-05-14T15:02:38.474Z,2.45
2023-05-14T15:05:06.088Z,2.40
2023-05-14T15:07:33.056Z,2.10
2023-05-14T15:09:59.866Z,2.40
2023-05-14T15:12:26.564Z,2.20
2023-05-14T15:14:53.243Z,2.17
2023-05-14T15:17:20.029Z,2.33
2023-05-14T15:19:46.724Z,2.10
2023-05-14T15:22:13.564Z,2.30
2023-05-14T15:24:40.328Z,2.40
2023-05-14T15:27:07.066Z,2.42
2023-05-14T15:29:33.694Z,2.47
2023-05-14T15:32:00.534Z,2.40
2023-05-14T15:34:27.253Z,2.20
2023-05-14T15:36:53.915Z,2.10
2023-05-14T15:39:20.552Z,2.00
2023-05-14T15:41:47.221Z,2.20
2023-05-14T15:44:13.887Z,2.25
2023-05-14T15:46:40.555Z,2.20
2023-05-14T15:49:07.189Z,2.50
2023-05-14T15:51:34.342Z,2.50
2023-05-14T15:54:01.215Z,2.15
2023-05-14T15:56:27.905Z,1.98
2023-05-14T15:58:54.584Z,2.33
2023-05-14T16:01:21.319Z,1.98
2023-05-14T16:03:48.158Z,2.30
2023-05-14T16:06:14.952Z,2.28
2023-05-14T16:08:41.686Z,2.22
2023-05-14T16:11:08.670Z,2.03
2023-05-14T16:13:37.751Z,2.10
2023-05-14T16:16:04.753Z,1.98
2023-05-14T16:18:31.477Z,2.15
2023-05-14T16:20:58.193Z,2.20
2023-05-14T16:23:25.030Z,2.13
2023-05-14T16:25:51.684Z,2.35
2023-05-14T16:28:18.461Z,2.25
2023-05-14T16:30:45.113Z,2.35
2023-05-14T16:33:11.981Z,2.20
2023-05-14T16:35:39.458Z,1.90
2023-05-14T16:38:06.290Z,2.35
2023-05-14T16:40:32.956Z,2.20
2023-05-14T16:42:59.607Z,1.85
2023-05-14T16:45:26.529Z,2.30
2023-05-14T16:47:54.156Z,2.22
2023-05-14T16:50:21.080Z,2.10
2023-05-14T16:52:47.706Z,2.40
2023-05-14T16:55:14.463Z,2.40
2023-05-14T16:57:41.196Z,2.00
2023-05-14T17:00:09.507Z,2.00
2023-05-14T17:02:36.419Z,2.10
2023-05-14T17:05:04.140Z,2.10
2023-05-14T17:07:31.487Z,2.30
2023-05-14T17:10:00.082Z,2.47
2023-05-14T17:12:27.076Z,2.22
2023-05-14T17:14:53.716Z,2.30
2023-05-14T17:17:20.530Z,2.40
2023-05-14T17:19:47.217Z,2.30
2023-05-14T17:22:14.026Z,2.40
2023-05-14T17:24:40.817Z,2.20
2023-05-14T17:27:07.827Z,2.28
2023-05-14T17:29:34.593Z,2.33
2023-05-14T17:32:03.482Z,2.28
2023-05-14T17:34:30.563Z,2.25
2023-05-14T17:36:57.311Z,2.20
2023-05-14T17:39:23.951Z,2.00
2023-05-14T17:41:50.683Z,2.10
2023-05-14T17:44:17.320Z,2.10
2023-05-14T17:46:45.196Z,2.10
2023-05-14T17:49:12.003Z,2.25
2023-05-14T17:51:38.647Z,1.88
2023-05-14T17:54:05.345Z,2.20
2023-05-14T17:56:32.230Z,2.40
2023-05-14T17:58:58.869Z,2.30
2023-05-14T18:01:25.660Z,1.90
2023-05-14T18:03:52.497Z,2.20
2023-05-14T18:06:19.226Z,2.58
2023-05-14T18:08:45.963Z,2.00
2023-05-14T18:11:12.601Z,2.20
2023-05-14T18:13:39.240Z,2.25
2023-05-14T18:16:06.010Z,2.22
2023-05-14T18:18:32.715Z,2.20
2023-05-14T18:20:59.741Z,2.13
2023-05-14T18:23:26.477Z,2.38
2023-05-14T18:25:53.305Z,2.17
2023-05-14T18:28:21.502Z,2.33
2023-05-14T18:30:49.274Z,2.13
2023-05-14T18:33:16.052Z,2.80
2023-05-14T18:35:43.761Z,2.40
2023-05-14T18:38:11.978Z,2.03
2023-05-14T18:40:38.639Z,2.28
2023-05-14T18:43:05.514Z,2.28
2023-05-14T18:45:32.196Z,2.38
2023-05-14T18:47:58.929Z,2.42
2023-05-14T18:50:25.607Z,1.98
2023-05-14T18:52:52.247Z,2.55
2023-05-14T18:55:18.888Z,2.10
2023-05-14T18:57:46.023Z,2.28
2023-05-14T19:00:13.362Z,2.28
2023-05-14T19:02:40.076Z,4.50
2023-05-14T19:05:07.414Z,2.40
2023-05-14T19:07:34.092Z,2.15
2023-05-14T19:10:00.767Z,2.30
2023-05-14T19:12:27.412Z,1.90
2023-05-14T19:14:54.069Z,2.35
2023-05-14T19:17:20.787Z,2.20
2023-05-14T19:19:47.473Z,2.05
2023-05-14T19:22:14.213Z,2.38
2023-05-14T19:24:41.072Z,2.75
2023-05-14T19:27:08.574Z,2.75
2023-05-14T19:29:36.884Z,3.78
2023-05-14T19:32:04.703Z,3.15
2023-05-14T19:34:31.650Z,2.22
2023-05-14T19:36:58.327Z,2.15
2023-05-14T19:39:24.995Z,2.05
2023-05-14T19:41:51.650Z,2.10
2023-05-14T19:44:18.299Z,1.98
2023-05-14T19:46:45.340Z,2.00
2023-05-14T19:49:12.225Z,2.22
2023-05-14T19:51:38.959Z,2.28
2023-05-14T19:54:05.905Z,2.10
2023-05-14T19:56:32.782Z,2.33
2023-05-14T19:58:59.443Z,2.20
2023-05-14T20:01:26.868Z,1.77
2023-05-14T20:03:53.560Z,1.98
2023-05-14T20:06:20.381Z,2.00
2023-05-14T20:08:47.075Z,2.00
2023-05-14T20:11:15.679Z,2.53
2023-05-14T20:13:42.349Z,2.28
2023-05-14T20:16:09.184Z,1.98
2023-05-14T20:18:36.241Z,2.35
2023-05-14T20:21:03.908Z,2.58
2023-05-14T20:23:30.669Z,2.60
2023-05-14T20:25:57.384Z,2.58
2023-05-14T20:28:24.011Z,2.80
2023-05-14T20:30:50.731Z,2.97
2023-05-14T20:33:17.457Z,2.60
2023-05-14T20:35:44.315Z,2.60
2023-05-14T20:38:12.848Z,2.28
2023-05-14T20:40:40.027Z,2.60
2023-05-14T20:43:06.677Z,2.40
2023-05-14T20:45:33.473Z,2.70
2023-05-14T20:48:00.149Z,2.65
2023-05-14T20:50:27.964Z,2.30
2023-05-14T20:52:55.386Z,2.13
2023-05-14T20:55:22.410Z,2.03
2023-05-14T20:57:49.766Z,2.00
2023-05-14T21:00:17.015Z,1.83
2023-05-14T21:02:43.857Z,1.92
2023-05-14T21:05:10.756Z,2.53
2023-05-14T21:07:37.595Z,3.20
2023-05-14T21:10:04.660Z,2.50
2023-05-14T21:12:31.399Z,2.30
2023-05-14T21:14:58.021Z,2.20
2023-05-14T21:17:24.873Z,2.20
2023-05-14T21:19:51.526Z,2.25
2023-05-14T21:22:18.193Z,2.58
2023-05-14T21:24:44.869Z,2.03
2023-05-14T21:27:11.667Z,2.08
2023-05-14T21:29:39.671Z,2.22
2023-05-14T21:32:06.773Z,2.00
2023-05-14T21:34:33.632Z,1.83
2023-05-14T21:37:00.505Z,2.40
2023-05-14T21:39:27.148Z,2.30
2023-05-14T21:41:53.768Z,1.85
2023-05-14T21:44:21.821Z,2.38
2023-05-14T21:46:48.937Z,2.00
2023-05-14T21:49:15.640Z,2.35
2023-05-14T21:51:42.904Z,1.88
2023-05-14T21:54:09.801Z,1.90
2023-05-14T21:56:37.221Z,2.33
2023-05-14T21:59:03.955Z,1.90
2023-05-14T22:01:32.529Z,2.30
2023-05-14T22:04:00.508Z,2.08
2023-05-14T22:06:27.233Z,1.95
2023-05-14T22:08:53.882Z,1.90
2023-05-14T22:11:21.906Z,1.98
2023-05-14T22:13:48.618Z,1.90
2023-05-14T22:16:15.289Z,2.22
2023-05-14T22:18:42.653Z,2.30
2023-05-14T22:21:09.570Z,2.00
2023-05-14T22:23:36.226Z,2.65
2023-05-14T22:26:03.067Z,2.30
2023-05-14T22:28:29.702Z,2.30
2023-05-14T22:30:59.677Z,2.90
2023-05-14T22:33:26.461Z,2.10
2023-05-14T22:35:53.278Z,1.80
2023-05-14T22:38:20.366Z,2.20
2023-05-14T22:40:47.238Z,2.30
2023-05-14T22:43:13.973Z,1.65
2023-05-14T22:45:41.037Z,2.30
2023-05-14T22:48:08.075Z,2.20
2023-05-14T22:50:34.773Z,2.10
2023-05-14T22:53:01.450Z,2.47
2023-05-14T22:55:28.262Z,2.45
2023-05-14T22:57:55.063Z,2.67
2023-05-14T23:00:21.741Z,2.60
2023-05-14T23:02:48.425Z,2.78
2023-05-14T23:05:15.357Z,2.90
2023-05-14T23:07:42.409Z,2.83
2023-05-14T23:10:09.870Z,2.67
2023-05-14T23:12:36.636Z,2.47
2023-05-14T23:15:03.567Z,2.60
2023-05-14T23:17:30.283Z,2.67
2023-05-14T23:19:57.249Z,2.50
2023-05-14T23:22:24.011Z,3.08
2023-05-14T23:24:50.709Z,2.88
2023-05-14T23:27:17.569Z,2.85
2023-05-14T23:29:44.365Z,2.65
2023-05-14T23:32:11.032Z,2.65
2023-05-14T23:34:37.750Z,3.03
2023-05-14T23:37:04.711Z,2.70
2023-05-14T23:39:31.392Z,2.70
2023-05-14T23:41:58.230Z,2.55
2023-05-14T23:44:25.015Z,2.70
2023-05-14T23:46:51.695Z,2.85
2023-05-14T23:49:18.449Z,2.88
2023-05-14T23:51:45.113Z,2.42
2023-05-14T23:54:12.121Z,2.75
2023-05-14T23:56:39.004Z,3.20
2023-05-14T23:59:05.769Z,2.88
